sensor_id;sensor_type;location;lat;lon;timestamp;temperature;humidity
24730;DHT22;12832;52.392;13.066;2023-02-26T00:01:22;25.10;29.80
24730;DHT22;12832;52.392;13.066;2023-02-26T00:03:54;25.10;29.80
24730;DHT22;12832;52.392;13.066;2023-02-26T00:06:21;25.10;29.80
24730;DHT22;12832;52.392;13.066;2023-02-26T00:08:47;25.10;29.80
24730;DHT22;12832;52.392;13.066;2023-02-26T00:11:13;25.10;29.80
24730;DHT22;12832;52.392;13.066;2023-02-26T00:13:41;25.10;29.80
24730;DHT22;12832;52.392;13.066;2023-02-26T00:18:46;25.10;29.80
24730;DHT22;12832;52.392;13.066;2023-02-26T00:21:17;25.10;29.80
24730;DHT22;12832;52.392;13.066;2023-02-26T00:23:43;25.10;29.90
24730;DHT22;12832;52.392;13.066;2023-02-26T00:26:10;25.10;29.90
24730;DHT22;12832;52.392;13.066;2023-02-26T00:28:36;25.10;29.90
24730;DHT22;12832;52.392;13.066;2023-02-26T00:31:03;25.10;29.90
24730;DHT22;12832;52.392;13.066;2023-02-26T00:33:29;25.10;29.80
24730;DHT22;12832;52.392;13.066;2023-02-26T00:36:02;25.10;29.80
24730;DHT22;12832;52.392;13.066;2023-02-26T00:38:33;25.10;29.80
24730;DHT22;12832;52.392;13.066;2023-02-26T00:41:01;25.10;29.90
24730;DHT22;12832;52.392;13.066;2023-02-26T00:43:27;25.10;30.40
24730;DHT22;12832;52.392;13.066;2023-02-26T00:46:21;25.10;29.80
24730;DHT22;12832;52.392;13.066;2023-02-26T00:48:58;25.10;29.80
24730;DHT22;12832;52.392;13.066;2023-02-26T00:54:23;25.10;29.80
24730;DHT22;12832;52.392;13.066;2023-02-26T00:56:51;25.10;29.80
24730;DHT22;12832;52.392;13.066;2023-02-26T00:59:19;25.10;29.90
24730;DHT22;12832;52.392;13.066;2023-02-26T01:01:45;25.10;29.80
24730;DHT22;12832;52.392;13.066;2023-02-26T01:04:12;25.10;29.80
24730;DHT22;12832;52.392;13.066;2023-02-26T01:06:43;25.10;29.80
24730;DHT22;12832;52.392;13.066;2023-02-26T01:09:24;25.10;29.80
24730;DHT22;12832;52.392;13.066;2023-02-26T01:11:51;25.10;29.90
24730;DHT22;12832;52.392;13.066;2023-02-26T01:14:18;25.10;29.80
24730;DHT22;12832;52.392;13.066;2023-02-26T01:16:52;25.10;29.80
24730;DHT22;12832;52.392;13.066;2023-02-26T01:19:38;25.10;29.90
24730;DHT22;12832;52.392;13.066;2023-02-26T01:22:18;25.10;29.90
24730;DHT22;12832;52.392;13.066;2023-02-26T01:24:48;25.10;29.80
24730;DHT22;12832;52.392;13.066;2023-02-26T01:27:16;25.10;29.80
24730;DHT22;12832;52.392;13.066;2023-02-26T01:29:42;25.10;29.80
24730;DHT22;12832;52.392;13.066;2023-02-26T01:32:40;25.10;29.80
24730;DHT22;12832;52.392;13.066;2023-02-26T01:35:18;25.10;29.80
24730;DHT22;12832;52.392;13.066;2023-02-26T01:38:00;25.10;29.80
24730;DHT22;12832;52.392;13.066;2023-02-26T01:40:45;25.10;29.80
24730;DHT22;12832;52.392;13.066;2023-02-26T01:46:21;25.10;29.80
24730;DHT22;12832;52.392;13.066;2023-02-26T01:48:54;25.10;29.90
24730;DHT22;12832;52.392;13.066;2023-02-26T01:54:07;25.10;29.80
24730;DHT22;12832;52.392;13.066;2023-02-26T01:56:33;25.10;29.80
24730;DHT22;12832;52.392;13.066;2023-02-26T01:58:59;25.10;29.80
24730;DHT22;12832;52.392;13.066;2023-02-26T02:01:36;25.10;29.80
24730;DHT22;12832;52.392;13.066;2023-02-26T02:04:04;25.10;29.80
24730;DHT22;12832;52.392;13.066;2023-02-26T02:06:31;25.10;29.80
24730;DHT22;12832;52.392;13.066;2023-02-26T02:08:57;25.10;29.80
24730;DHT22;12832;52.392;13.066;2023-02-26T02:11:23;25.10;29.80
24730;DHT22;12832;52.392;13.066;2023-02-26T02:16:43;25.10;29.80
24730;DHT22;12832;52.392;13.066;2023-02-26T02:19:46;25.10;29.80
24730;DHT22;12832;52.392;13.066;2023-02-26T02:22:50;25.10;29.80
24730;DHT22;12832;52.392;13.066;2023-02-26T02:33:32;25.10;29.80
24730;DHT22;12832;52.392;13.066;2023-02-26T02:36:09;25.10;29.80
24730;DHT22;12832;52.392;13.066;2023-02-26T02:38:48;25.10;29.80
24730;DHT22;12832;52.392;13.066;2023-02-26T02:41:19;25.10;29.80
24730;DHT22;12832;52.392;13.066;2023-02-26T02:43:48;25.10;29.80
24730;DHT22;12832;52.392;13.066;2023-02-26T02:46:21;25.10;29.80
24730;DHT22;12832;52.392;13.066;2023-02-26T02:48:53;25.10;29.80
24730;DHT22;12832;52.392;13.066;2023-02-26T02:51:39;25.10;29.90
24730;DHT22;12832;52.392;13.066;2023-02-26T02:54:11;25.10;29.80
24730;DHT22;12832;52.392;13.066;2023-02-26T02:56:47;25.10;29.80
24730;DHT22;12832;52.392;13.066;2023-02-26T02:59:16;25.10;29.80
24730;DHT22;12832;52.392;13.066;2023-02-26T03:01:44;25.10;29.80
24730;DHT22;12832;52.392;13.066;2023-02-26T03:04:14;25.10;29.80
24730;DHT22;12832;52.392;13.066;2023-02-26T03:06:41;25.10;29.80
24730;DHT22;12832;52.392;13.066;2023-02-26T03:09:09;25.10;29.80
24730;DHT22;12832;52.392;13.066;2023-02-26T03:11:35;25.10;29.80
24730;DHT22;12832;52.392;13.066;2023-02-26T03:14:02;25.10;29.80
24730;DHT22;12832;52.392;13.066;2023-02-26T03:21:35;25.10;29.80
24730;DHT22;12832;52.392;13.066;2023-02-26T03:24:19;25.10;29.80
24730;DHT22;12832;52.392;13.066;2023-02-26T03:27:27;25.10;29.80
24730;DHT22;12832;52.392;13.066;2023-02-26T03:29:54;25.10;29.80
24730;DHT22;12832;52.392;13.066;2023-02-26T03:32:28;25.10;29.80
24730;DHT22;12832;52.392;13.066;2023-02-26T03:35:08;25.10;29.80
24730;DHT22;12832;52.392;13.066;2023-02-26T03:37:51;25.10;29.80
24730;DHT22;12832;52.392;13.066;2023-02-26T03:40:24;25.10;29.80
24730;DHT22;12832;52.392;13.066;2023-02-26T03:43:27;25.10;29.80
24730;DHT22;12832;52.392;13.066;2023-02-26T03:45:49;25.10;29.80
24730;DHT22;12832;52.392;13.066;2023-02-26T03:48:20;25.10;29.80
24730;DHT22;12832;52.392;13.066;2023-02-26T03:50:53;25.10;29.80
24730;DHT22;12832;52.392;13.066;2023-02-26T03:53:28;25.10;29.80
24730;DHT22;12832;52.392;13.066;2023-02-26T03:57:02;25.10;29.80
24730;DHT22;12832;52.392;13.066;2023-02-26T03:58:57;25.10;29.80
24730;DHT22;12832;52.392;13.066;2023-02-26T04:02:21;25.10;29.80
24730;DHT22;12832;52.392;13.066;2023-02-26T04:04:47;25.10;29.80
24730;DHT22;12832;52.392;13.066;2023-02-26T04:07:17;25.10;29.80
24730;DHT22;12832;52.392;13.066;2023-02-26T04:09:46;25.10;29.80
24730;DHT22;12832;52.392;13.066;2023-02-26T04:12:12;25.10;29.80
24730;DHT22;12832;52.392;13.066;2023-02-26T04:14:39;25.10;29.80
24730;DHT22;12832;52.392;13.066;2023-02-26T04:17:05;25.10;29.80
24730;DHT22;12832;52.392;13.066;2023-02-26T04:19:31;25.10;29.80
24730;DHT22;12832;52.392;13.066;2023-02-26T04:21:57;25.10;29.80
24730;DHT22;12832;52.392;13.066;2023-02-26T04:24:23;25.10;29.80
24730;DHT22;12832;52.392;13.066;2023-02-26T04:26:49;25.10;29.90
24730;DHT22;12832;52.392;13.066;2023-02-26T04:29:15;25.10;29.80
24730;DHT22;12832;52.392;13.066;2023-02-26T04:31:41;25.10;29.80
24730;DHT22;12832;52.392;13.066;2023-02-26T04:34:08;25.10;29.80
24730;DHT22;12832;52.392;13.066;2023-02-26T04:36:34;25.10;29.80
24730;DHT22;12832;52.392;13.066;2023-02-26T04:39:00;25.10;29.80
24730;DHT22;12832;52.392;13.066;2023-02-26T04:41:26;25.10;29.80
24730;DHT22;12832;52.392;13.066;2023-02-26T04:43:52;25.10;29.80
24730;DHT22;12832;52.392;13.066;2023-02-26T04:46:18;25.10;29.80
24730;DHT22;12832;52.392;13.066;2023-02-26T04:48:45;25.10;30.40
24730;DHT22;12832;52.392;13.066;2023-02-26T04:51:11;25.10;29.80
24730;DHT22;12832;52.392;13.066;2023-02-26T04:53:37;25.10;29.80
24730;DHT22;12832;52.392;13.066;2023-02-26T04:56:03;25.10;29.80
24730;DHT22;12832;52.392;13.066;2023-02-26T04:58:29;25.10;29.80
24730;DHT22;12832;52.392;13.066;2023-02-26T05:00:56;25.10;29.80
24730;DHT22;12832;52.392;13.066;2023-02-26T05:03:22;25.10;29.80
24730;DHT22;12832;52.392;13.066;2023-02-26T05:05:48;25.10;29.80
24730;DHT22;12832;52.392;13.066;2023-02-26T05:08:15;25.10;29.80
24730;DHT22;12832;52.392;13.066;2023-02-26T05:10:41;25.10;29.80
24730;DHT22;12832;52.392;13.066;2023-02-26T05:13:07;25.10;29.80
24730;DHT22;12832;52.392;13.066;2023-02-26T05:15:33;25.10;29.80
24730;DHT22;12832;52.392;13.066;2023-02-26T05:17:59;25.10;29.80
24730;DHT22;12832;52.392;13.066;2023-02-26T05:20:25;25.20;29.90
24730;DHT22;12832;52.392;13.066;2023-02-26T05:22:51;25.20;29.90
24730;DHT22;12832;52.392;13.066;2023-02-26T05:25:18;25.20;30.40
24730;DHT22;12832;52.392;13.066;2023-02-26T05:27:44;25.10;29.90
24730;DHT22;12832;52.392;13.066;2023-02-26T05:30:13;25.10;29.90
24730;DHT22;12832;52.392;13.066;2023-02-26T05:32:40;25.10;29.90
24730;DHT22;12832;52.392;13.066;2023-02-26T05:35:06;25.10;29.80
24730;DHT22;12832;52.392;13.066;2023-02-26T05:37:32;25.10;29.90
24730;DHT22;12832;52.392;13.066;2023-02-26T05:39:58;25.10;29.80
24730;DHT22;12832;52.392;13.066;2023-02-26T05:42:24;25.10;29.80
24730;DHT22;12832;52.392;13.066;2023-02-26T05:44:51;25.20;29.90
24730;DHT22;12832;52.392;13.066;2023-02-26T05:47:17;25.10;30.30
24730;DHT22;12832;52.392;13.066;2023-02-26T05:49:43;25.10;29.80
24730;DHT22;12832;52.392;13.066;2023-02-26T05:52:09;25.10;29.70
24730;DHT22;12832;52.392;13.066;2023-02-26T05:54:35;25.10;29.70
24730;DHT22;12832;52.392;13.066;2023-02-26T05:57:01;25.10;29.70
24730;DHT22;12832;52.392;13.066;2023-02-26T05:59:27;25.10;29.60
24730;DHT22;12832;52.392;13.066;2023-02-26T06:01:53;25.10;29.60
24730;DHT22;12832;52.392;13.066;2023-02-26T06:04:20;25.10;29.60
24730;DHT22;12832;52.392;13.066;2023-02-26T06:06:46;25.10;29.60
24730;DHT22;12832;52.392;13.066;2023-02-26T06:09:12;25.10;29.50
24730;DHT22;12832;52.392;13.066;2023-02-26T06:11:38;25.10;29.50
24730;DHT22;12832;52.392;13.066;2023-02-26T06:14:05;25.10;29.50
24730;DHT22;12832;52.392;13.066;2023-02-26T06:16:31;25.10;29.50
24730;DHT22;12832;52.392;13.066;2023-02-26T06:18:57;25.20;29.50
24730;DHT22;12832;52.392;13.066;2023-02-26T06:21:23;25.10;29.40
24730;DHT22;12832;52.392;13.066;2023-02-26T06:23:50;25.10;29.40
24730;DHT22;12832;52.392;13.066;2023-02-26T06:26:16;25.10;29.40
24730;DHT22;12832;52.392;13.066;2023-02-26T06:28:42;25.10;29.40
24730;DHT22;12832;52.392;13.066;2023-02-26T06:31:08;25.10;29.30
24730;DHT22;12832;52.392;13.066;2023-02-26T06:33:34;25.10;29.30
24730;DHT22;12832;52.392;13.066;2023-02-26T06:36:00;25.10;29.30
24730;DHT22;12832;52.392;13.066;2023-02-26T06:38:27;25.10;29.30
24730;DHT22;12832;52.392;13.066;2023-02-26T06:40:54;25.10;29.20
24730;DHT22;12832;52.392;13.066;2023-02-26T06:43:20;25.10;29.20
24730;DHT22;12832;52.392;13.066;2023-02-26T06:45:47;25.10;29.20
24730;DHT22;12832;52.392;13.066;2023-02-26T06:48:13;25.10;29.10
24730;DHT22;12832;52.392;13.066;2023-02-26T06:50:39;25.10;29.10
24730;DHT22;12832;52.392;13.066;2023-02-26T06:53:05;25.10;29.00
24730;DHT22;12832;52.392;13.066;2023-02-26T06:55:32;25.10;29.00
24730;DHT22;12832;52.392;13.066;2023-02-26T06:57:58;25.10;29.00
24730;DHT22;12832;52.392;13.066;2023-02-26T07:00:25;25.10;29.00
24730;DHT22;12832;52.392;13.066;2023-02-26T07:02:52;25.20;29.00
24730;DHT22;12832;52.392;13.066;2023-02-26T07:05:18;25.20;29.00
24730;DHT22;12832;52.392;13.066;2023-02-26T07:07:44;25.20;29.00
24730;DHT22;12832;52.392;13.066;2023-02-26T07:10:11;25.10;28.90
24730;DHT22;12832;52.392;13.066;2023-02-26T07:12:37;25.10;28.80
24730;DHT22;12832;52.392;13.066;2023-02-26T07:15:05;25.20;28.90
24730;DHT22;12832;52.392;13.066;2023-02-26T07:17:31;25.10;28.80
24730;DHT22;12832;52.392;13.066;2023-02-26T07:19:57;25.10;28.80
24730;DHT22;12832;52.392;13.066;2023-02-26T07:22:23;25.10;28.80
24730;DHT22;12832;52.392;13.066;2023-02-26T07:24:50;25.10;28.70
24730;DHT22;12832;52.392;13.066;2023-02-26T07:27:16;25.10;28.70
24730;DHT22;12832;52.392;13.066;2023-02-26T07:29:42;25.10;29.30
24730;DHT22;12832;52.392;13.066;2023-02-26T07:32:08;25.10;28.70
24730;DHT22;12832;52.392;13.066;2023-02-26T07:34:34;25.10;28.70
24730;DHT22;12832;52.392;13.066;2023-02-26T07:37:00;25.10;28.70
24730;DHT22;12832;52.392;13.066;2023-02-26T07:39:27;25.10;28.70
24730;DHT22;12832;52.392;13.066;2023-02-26T07:41:53;25.20;28.60
24730;DHT22;12832;52.392;13.066;2023-02-26T07:44:19;25.10;28.60
24730;DHT22;12832;52.392;13.066;2023-02-26T07:46:45;25.10;28.60
24730;DHT22;12832;52.392;13.066;2023-02-26T07:49:11;25.10;28.60
24730;DHT22;12832;52.392;13.066;2023-02-26T07:51:37;25.10;28.50
24730;DHT22;12832;52.392;13.066;2023-02-26T07:54:05;25.10;28.50
24730;DHT22;12832;52.392;13.066;2023-02-26T07:56:32;25.20;28.60
24730;DHT22;12832;52.392;13.066;2023-02-26T07:58:58;25.10;28.50
24730;DHT22;12832;52.392;13.066;2023-02-26T08:01:24;25.10;28.50
24730;DHT22;12832;52.392;13.066;2023-02-26T08:03:50;25.10;28.40
24730;DHT22;12832;52.392;13.066;2023-02-26T08:06:16;25.10;28.40
24730;DHT22;12832;52.392;13.066;2023-02-26T08:08:42;25.20;28.40
24730;DHT22;12832;52.392;13.066;2023-02-26T08:11:08;25.20;28.40
24730;DHT22;12832;52.392;13.066;2023-02-26T08:13:34;25.20;28.40
24730;DHT22;12832;52.392;13.066;2023-02-26T08:16:01;25.10;28.40
24730;DHT22;12832;52.392;13.066;2023-02-26T08:18:27;25.20;28.40
24730;DHT22;12832;52.392;13.066;2023-02-26T08:20:53;25.10;28.40
24730;DHT22;12832;52.392;13.066;2023-02-26T08:23:19;25.10;28.40
24730;DHT22;12832;52.392;13.066;2023-02-26T08:25:45;25.10;28.40
24730;DHT22;12832;52.392;13.066;2023-02-26T08:28:12;25.10;28.40
24730;DHT22;12832;52.392;13.066;2023-02-26T08:30:38;25.20;28.40
24730;DHT22;12832;52.392;13.066;2023-02-26T08:33:04;25.20;28.40
24730;DHT22;12832;52.392;13.066;2023-02-26T08:35:30;25.20;28.40
24730;DHT22;12832;52.392;13.066;2023-02-26T08:37:56;25.20;28.40
24730;DHT22;12832;52.392;13.066;2023-02-26T08:40:22;25.20;28.40
24730;DHT22;12832;52.392;13.066;2023-02-26T08:42:50;25.10;28.40
24730;DHT22;12832;52.392;13.066;2023-02-26T08:45:16;25.10;28.40
24730;DHT22;12832;52.392;13.066;2023-02-26T08:47:42;25.10;28.40
24730;DHT22;12832;52.392;13.066;2023-02-26T08:50:22;25.20;28.40
24730;DHT22;12832;52.392;13.066;2023-02-26T08:52:48;25.20;28.40
24730;DHT22;12832;52.392;13.066;2023-02-26T08:55:14;25.10;28.40
24730;DHT22;12832;52.392;13.066;2023-02-26T08:57:40;25.10;28.40
24730;DHT22;12832;52.392;13.066;2023-02-26T09:00:07;25.20;28.40
24730;DHT22;12832;52.392;13.066;2023-02-26T09:02:37;25.20;28.40
24730;DHT22;12832;52.392;13.066;2023-02-26T09:05:04;25.20;28.40
24730;DHT22;12832;52.392;13.066;2023-02-26T09:07:30;25.20;28.40
24730;DHT22;12832;52.392;13.066;2023-02-26T09:09:56;25.20;28.40
24730;DHT22;12832;52.392;13.066;2023-02-26T09:12:23;25.10;28.40
24730;DHT22;12832;52.392;13.066;2023-02-26T09:14:49;25.20;28.40
24730;DHT22;12832;52.392;13.066;2023-02-26T09:17:15;25.20;28.40
24730;DHT22;12832;52.392;13.066;2023-02-26T09:19:41;25.10;28.40
24730;DHT22;12832;52.392;13.066;2023-02-26T09:22:08;25.20;28.40
24730;DHT22;12832;52.392;13.066;2023-02-26T09:24:34;25.20;28.40
24730;DHT22;12832;52.392;13.066;2023-02-26T09:27:00;25.20;28.40
24730;DHT22;12832;52.392;13.066;2023-02-26T09:29:28;25.20;28.40
24730;DHT22;12832;52.392;13.066;2023-02-26T09:31:54;25.10;28.40
24730;DHT22;12832;52.392;13.066;2023-02-26T09:34:20;25.10;28.40
24730;DHT22;12832;52.392;13.066;2023-02-26T09:36:47;25.10;28.40
24730;DHT22;12832;52.392;13.066;2023-02-26T09:39:13;25.10;28.40
24730;DHT22;12832;52.392;13.066;2023-02-26T09:41:43;25.10;28.40
24730;DHT22;12832;52.392;13.066;2023-02-26T09:44:24;25.10;28.40
24730;DHT22;12832;52.392;13.066;2023-02-26T09:54:46;25.20;28.50
24730;DHT22;12832;52.392;13.066;2023-02-26T09:57:27;25.20;28.50
24730;DHT22;12832;52.392;13.066;2023-02-26T09:59:54;25.10;28.40
24730;DHT22;12832;52.392;13.066;2023-02-26T10:02:41;25.20;28.50
24730;DHT22;12832;52.392;13.066;2023-02-26T10:05:18;25.10;28.50
24730;DHT22;12832;52.392;13.066;2023-02-26T10:07:58;25.10;28.50
24730;DHT22;12832;52.392;13.066;2023-02-26T10:12:59;25.10;28.50
24730;DHT22;12832;52.392;13.066;2023-02-26T10:15:29;25.10;28.50
24730;DHT22;12832;52.392;13.066;2023-02-26T10:18:09;25.10;28.50
24730;DHT22;12832;52.392;13.066;2023-02-26T10:20:53;25.10;29.00
24730;DHT22;12832;52.392;13.066;2023-02-26T10:23:40;25.10;28.50
24730;DHT22;12832;52.392;13.066;2023-02-26T10:26:18;25.10;28.50
24730;DHT22;12832;52.392;13.066;2023-02-26T10:34:38;25.10;28.50
24730;DHT22;12832;52.392;13.066;2023-02-26T10:42:46;25.10;28.50
24730;DHT22;12832;52.392;13.066;2023-02-26T10:45:40;25.10;28.60
24730;DHT22;12832;52.392;13.066;2023-02-26T10:48:13;25.10;28.60
24730;DHT22;12832;52.392;13.066;2023-02-26T10:50:50;25.10;28.50
24730;DHT22;12832;52.392;13.066;2023-02-26T10:53:18;25.10;28.60
24730;DHT22;12832;52.392;13.066;2023-02-26T10:58:23;25.10;28.60
24730;DHT22;12832;52.392;13.066;2023-02-26T11:00:52;25.10;28.60
24730;DHT22;12832;52.392;13.066;2023-02-26T11:03:37;25.10;28.60
24730;DHT22;12832;52.392;13.066;2023-02-26T11:06:05;25.10;29.10
24730;DHT22;12832;52.392;13.066;2023-02-26T11:08:39;25.10;28.60
24730;DHT22;12832;52.392;13.066;2023-02-26T11:11:07;25.10;28.60
24730;DHT22;12832;52.392;13.066;2023-02-26T11:13:35;25.10;28.60
24730;DHT22;12832;52.392;13.066;2023-02-26T11:16:05;25.10;28.60
24730;DHT22;12832;52.392;13.066;2023-02-26T11:18:54;25.20;28.60
24730;DHT22;12832;52.392;13.066;2023-02-26T11:21:29;25.10;28.60
24730;DHT22;12832;52.392;13.066;2023-02-26T11:26:53;25.10;28.60
24730;DHT22;12832;52.392;13.066;2023-02-26T11:29:21;25.10;28.60
24730;DHT22;12832;52.392;13.066;2023-02-26T11:31:52;25.10;28.60
24730;DHT22;12832;52.392;13.066;2023-02-26T11:34:25;25.10;28.60
24730;DHT22;12832;52.392;13.066;2023-02-26T11:36:54;25.10;28.60
24730;DHT22;12832;52.392;13.066;2023-02-26T11:39:24;25.10;28.60
24730;DHT22;12832;52.392;13.066;2023-02-26T11:41:55;25.10;28.60
24730;DHT22;12832;52.392;13.066;2023-02-26T11:44:35;25.10;28.60
24730;DHT22;12832;52.392;13.066;2023-02-26T11:49:44;25.10;28.60
24730;DHT22;12832;52.392;13.066;2023-02-26T11:54:38;25.10;28.70
24730;DHT22;12832;52.392;13.066;2023-02-26T11:57:06;25.10;28.60
24730;DHT22;12832;52.392;13.066;2023-02-26T11:59:39;25.10;28.70
24730;DHT22;12832;52.392;13.066;2023-02-26T12:02:13;25.10;28.60
24730;DHT22;12832;52.392;13.066;2023-02-26T12:04:43;25.10;28.60
24730;DHT22;12832;52.392;13.066;2023-02-26T12:07:14;25.10;28.60
24730;DHT22;12832;52.392;13.066;2023-02-26T12:09:41;25.10;28.70
24730;DHT22;12832;52.392;13.066;2023-02-26T12:15:00;25.10;28.70
24730;DHT22;12832;52.392;13.066;2023-02-26T12:20:29;25.10;28.70
24730;DHT22;12832;52.392;13.066;2023-02-26T12:26:09;25.10;28.70
24730;DHT22;12832;52.392;13.066;2023-02-26T12:37:23;25.10;28.70
24730;DHT22;12832;52.392;13.066;2023-02-26T12:40:16;25.10;28.70
24730;DHT22;12832;52.392;13.066;2023-02-26T12:43:09;25.10;28.70
24730;DHT22;12832;52.392;13.066;2023-02-26T12:46:14;25.10;28.70
24730;DHT22;12832;52.392;13.066;2023-02-26T12:51:56;25.10;28.70
24730;DHT22;12832;52.392;13.066;2023-02-26T12:59:57;25.10;28.70
24730;DHT22;12832;52.392;13.066;2023-02-26T13:02:37;25.10;28.80
24730;DHT22;12832;52.392;13.066;2023-02-26T13:05:25;25.10;28.70
24730;DHT22;12832;52.392;13.066;2023-02-26T13:08:31;25.10;28.70
24730;DHT22;12832;52.392;13.066;2023-02-26T13:14:03;25.10;28.70
24730;DHT22;12832;52.392;13.066;2023-02-26T13:19:31;25.10;28.80
24730;DHT22;12832;52.392;13.066;2023-02-26T13:24:55;25.10;28.80
24730;DHT22;12832;52.392;13.066;2023-02-26T13:27:33;25.10;28.80
24730;DHT22;12832;52.392;13.066;2023-02-26T13:32:38;25.10;28.70
24730;DHT22;12832;52.392;13.066;2023-02-26T13:35:18;25.10;28.80
24730;DHT22;12832;52.392;13.066;2023-02-26T13:37:49;25.10;28.70
24730;DHT22;12832;52.392;13.066;2023-02-26T13:40:49;25.10;28.80
24730;DHT22;12832;52.392;13.066;2023-02-26T13:49:41;25.10;28.70
24730;DHT22;12832;52.392;13.066;2023-02-26T13:52:28;25.10;29.00
24730;DHT22;12832;52.392;13.066;2023-02-26T13:54:56;25.10;28.80
24730;DHT22;12832;52.392;13.066;2023-02-26T13:57:36;25.10;28.80
24730;DHT22;12832;52.392;13.066;2023-02-26T14:02:49;25.10;28.80
24730;DHT22;12832;52.392;13.066;2023-02-26T14:08:29;25.10;28.80
24730;DHT22;12832;52.392;13.066;2023-02-26T14:14:04;25.10;28.80
24730;DHT22;12832;52.392;13.066;2023-02-26T14:16:33;25.10;28.80
24730;DHT22;12832;52.392;13.066;2023-02-26T14:19:21;25.10;28.80
24730;DHT22;12832;52.392;13.066;2023-02-26T14:21:51;25.10;28.80
24730;DHT22;12832;52.392;13.066;2023-02-26T14:24:31;25.10;28.80
24730;DHT22;12832;52.392;13.066;2023-02-26T14:34:59;25.10;28.80
24730;DHT22;12832;52.392;13.066;2023-02-26T14:37:28;25.10;28.80
24730;DHT22;12832;52.392;13.066;2023-02-26T14:40:10;25.10;28.80
24730;DHT22;12832;52.392;13.066;2023-02-26T14:45:17;25.10;28.80
24730;DHT22;12832;52.392;13.066;2023-02-26T14:47:48;25.10;28.80
24730;DHT22;12832;52.392;13.066;2023-02-26T14:50:17;25.20;28.80
24730;DHT22;12832;52.392;13.066;2023-02-26T14:53:08;25.20;28.90
24730;DHT22;12832;52.392;13.066;2023-02-26T14:58:31;25.20;28.80
24730;DHT22;12832;52.392;13.066;2023-02-26T15:04:19;25.10;28.80
24730;DHT22;12832;52.392;13.066;2023-02-26T15:11:58;25.10;28.80
24730;DHT22;12832;52.392;13.066;2023-02-26T15:23:17;25.10;28.80
24730;DHT22;12832;52.392;13.066;2023-02-26T15:25:47;25.10;28.80
24730;DHT22;12832;52.392;13.066;2023-02-26T15:28:24;25.10;28.80
24730;DHT22;12832;52.392;13.066;2023-02-26T15:30:51;25.10;28.80
24730;DHT22;12832;52.392;13.066;2023-02-26T15:33:19;25.10;28.80
24730;DHT22;12832;52.392;13.066;2023-02-26T15:35:51;25.20;28.90
24730;DHT22;12832;52.392;13.066;2023-02-26T15:38:18;25.10;28.80
24730;DHT22;12832;52.392;13.066;2023-02-26T15:40:45;25.10;28.80
24730;DHT22;12832;52.392;13.066;2023-02-26T15:43:15;25.10;28.80
24730;DHT22;12832;52.392;13.066;2023-02-26T15:45:50;25.10;28.80
24730;DHT22;12832;52.392;13.066;2023-02-26T15:48:30;25.10;28.80
24730;DHT22;12832;52.392;13.066;2023-02-26T15:51:02;25.20;28.90
24730;DHT22;12832;52.392;13.066;2023-02-26T15:53:36;25.20;28.90
24730;DHT22;12832;52.392;13.066;2023-02-26T15:56:07;25.20;28.90
24730;DHT22;12832;52.392;13.066;2023-02-26T15:58:38;25.20;28.90
24730;DHT22;12832;52.392;13.066;2023-02-26T16:01:05;25.20;28.90
24730;DHT22;12832;52.392;13.066;2023-02-26T16:03:35;25.20;28.80
24730;DHT22;12832;52.392;13.066;2023-02-26T16:06:02;25.20;28.90
24730;DHT22;12832;52.392;13.066;2023-02-26T16:08:34;25.20;28.90
24730;DHT22;12832;52.392;13.066;2023-02-26T16:11:01;25.20;28.90
24730;DHT22;12832;52.392;13.066;2023-02-26T16:13:32;25.10;28.80
24730;DHT22;12832;52.392;13.066;2023-02-26T16:16:12;25.20;28.90
24730;DHT22;12832;52.392;13.066;2023-02-26T16:18:39;25.20;28.90
24730;DHT22;12832;52.392;13.066;2023-02-26T16:21:08;25.20;28.90
24730;DHT22;12832;52.392;13.066;2023-02-26T16:23:42;25.20;28.90
24730;DHT22;12832;52.392;13.066;2023-02-26T16:26:15;25.20;28.90
24730;DHT22;12832;52.392;13.066;2023-02-26T16:28:43;25.20;28.90
24730;DHT22;12832;52.392;13.066;2023-02-26T16:31:19;25.20;28.90
24730;DHT22;12832;52.392;13.066;2023-02-26T16:33:59;25.20;28.90
24730;DHT22;12832;52.392;13.066;2023-02-26T16:36:30;25.10;28.80
24730;DHT22;12832;52.392;13.066;2023-02-26T16:41:35;25.20;28.80
24730;DHT22;12832;52.392;13.066;2023-02-26T16:46:57;25.10;28.70
24730;DHT22;12832;52.392;13.066;2023-02-26T16:49:28;25.20;28.70
24730;DHT22;12832;52.392;13.066;2023-02-26T16:51:55;25.20;28.60
24730;DHT22;12832;52.392;13.066;2023-02-26T16:54:23;25.20;28.60
24730;DHT22;12832;52.392;13.066;2023-02-26T16:56:58;25.20;28.60
24730;DHT22;12832;52.392;13.066;2023-02-26T16:59:29;25.20;28.60
24730;DHT22;12832;52.392;13.066;2023-02-26T17:04:39;25.20;28.50
24730;DHT22;12832;52.392;13.066;2023-02-26T17:07:15;25.20;28.40
24730;DHT22;12832;52.392;13.066;2023-02-26T17:09:50;25.20;28.40
24730;DHT22;12832;52.392;13.066;2023-02-26T17:12:21;25.20;28.40
24730;DHT22;12832;52.392;13.066;2023-02-26T17:14:54;25.20;28.40
24730;DHT22;12832;52.392;13.066;2023-02-26T17:17:22;25.20;28.40
24730;DHT22;12832;52.392;13.066;2023-02-26T17:19:48;25.20;28.30
24730;DHT22;12832;52.392;13.066;2023-02-26T17:22:17;25.20;28.30
24730;DHT22;12832;52.392;13.066;2023-02-26T17:24:51;25.20;28.30
24730;DHT22;12832;52.392;13.066;2023-02-26T17:27:27;25.20;28.30
24730;DHT22;12832;52.392;13.066;2023-02-26T17:29:53;25.20;28.20
24730;DHT22;12832;52.392;13.066;2023-02-26T17:32:22;25.10;28.10
24730;DHT22;12832;52.392;13.066;2023-02-26T17:34:49;25.20;28.10
24730;DHT22;12832;52.392;13.066;2023-02-26T17:37:16;25.20;28.10
24730;DHT22;12832;52.392;13.066;2023-02-26T17:39:42;25.20;28.10
24730;DHT22;12832;52.392;13.066;2023-02-26T17:42:18;25.20;28.00
24730;DHT22;12832;52.392;13.066;2023-02-26T17:44:46;25.20;28.00
24730;DHT22;12832;52.392;13.066;2023-02-26T17:47:17;25.10;27.90
24730;DHT22;12832;52.392;13.066;2023-02-26T17:49:43;25.20;28.00
24730;DHT22;12832;52.392;13.066;2023-02-26T17:52:09;25.10;27.90
24730;DHT22;12832;52.392;13.066;2023-02-26T17:54:35;25.10;27.80
24730;DHT22;12832;52.392;13.066;2023-02-26T17:57:02;25.10;27.80
24730;DHT22;12832;52.392;13.066;2023-02-26T17:59:28;25.20;27.80
24730;DHT22;12832;52.392;13.066;2023-02-26T18:01:54;25.20;27.80
24730;DHT22;12832;52.392;13.066;2023-02-26T18:04:20;25.10;27.80
24730;DHT22;12832;52.392;13.066;2023-02-26T18:06:48;25.10;26.70
24730;DHT22;12832;52.392;13.066;2023-02-26T18:09:14;25.10;26.80